Time;durP1;ratioP1;P1;durP2;ratioP2;P2;SDS_P1;SDS_P2;PMS_P1;PMS_P2;Temp;Humidity;BMP_temperature;BMP_pressure;BME280_temperature;BME280_humidity;BME280_pressure;Samples;Min_cycle;Max_cycle;Signal;HPM_P1;HPM_P2
2022/11/21 00:01:12;;;;;;;4.47;1.27;;;;;;;7.07;91.37;99074.06;6091205;23;20323;-82
2022/11/21 00:03:39;;;;;;;5.72;1.70;;;;;;;7.10;91.47;99079.09;6114144;23;20025;-83
2022/11/21 00:06:06;;;;;;;4.70;1.20;;;;;;;7.10;91.58;99060.63;6165075;23;20028;-82
2022/11/21 00:08:33;;;;;;;3.75;1.10;;;;;;;7.10;91.64;99061.44;6091233;23;20332;-82
2022/11/21 00:10:59;;;;;;;5.30;1.48;;;;;;;7.11;91.51;99055.19;6116395;23;20033;-84
2022/11/21 00:13:26;;;;;;;2.42;1.08;;;;;;;7.11;91.35;99057.81;6114047;23;20343;-82
2022/11/21 00:15:53;;;;;;;4.28;1.70;;;;;;;7.13;91.55;99060.34;6090318;23;20025;-82
2022/11/21 00:18:19;;;;;;;2.45;1.50;;;;;;;7.13;91.63;99057.72;6086827;23;20045;-82
2022/11/21 00:20:46;;;;;;;2.33;1.20;;;;;;;7.15;91.61;99053.13;6087591;23;20034;-82
2022/11/21 00:23:13;;;;;;;1.92;1.35;;;;;;;7.15;91.39;99055.78;6114618;23;20093;-82
2022/11/21 00:25:40;;;;;;;3.90;1.60;;;;;;;7.15;91.30;99059.25;6090755;23;20021;-82
2022/11/21 00:28:06;;;;;;;3.50;1.20;;;;;;;7.14;91.54;99049.63;6103875;23;20026;-83
2022/11/21 00:30:33;;;;;;;4.68;1.92;;;;;;;7.15;91.51;99045.22;6063934;23;20085;-83
2022/11/21 00:33:00;;;;;;;3.95;1.73;;;;;;;7.16;91.39;99046.88;6063773;23;20497;-82
2022/11/21 00:35:27;;;;;;;2.22;1.42;;;;;;;7.19;91.41;99057.16;6114350;23;20030;-82
2022/11/21 00:37:53;;;;;;;4.47;1.95;;;;;;;7.18;91.51;99048.41;6138906;23;20057;-84
2022/11/21 00:40:20;;;;;;;1.65;1.17;;;;;;;7.19;91.42;99043.97;6139686;23;20073;-83
2022/11/21 00:42:47;;;;;;;3.60;1.33;;;;;;;7.18;91.55;99040.50;6113410;23;20089;-82
2022/11/21 00:45:14;;;;;;;2.60;1.27;;;;;;;7.20;91.66;99039.50;6113960;23;20029;-82
2022/11/21 00:47:48;;;;;;;7.05;1.60;;;;;;;7.18;91.74;99034.38;6083222;23;20029;-82
2022/11/21 00:50:15;;;;;;;3.42;1.30;;;;;;;7.19;91.46;99036.03;6115251;23;20061;-81
2022/11/21 00:52:41;;;;;;;4.97;1.35;;;;;;;7.19;91.44;99033.41;6113929;23;20022;-82
2022/11/21 00:55:08;;;;;;;4.05;1.45;;;;;;;7.18;91.65;99022.00;6138805;23;20029;-82
2022/11/21 00:57:35;;;;;;;7.00;1.35;;;;;;;7.18;91.50;99026.47;6114773;23;20466;-82
2022/11/21 01:00:03;;;;;;;3.03;1.00;;;;;;;7.19;91.27;99012.28;6066503;23;20053;-82
2022/11/21 01:02:31;;;;;;;2.85;1.10;;;;;;;7.19;91.48;99009.63;6113417;23;20510;-82
2022/11/21 01:04:58;;;;;;;3.28;1.00;;;;;;;7.19;91.34;99017.56;6090397;23;20434;-83
2022/11/21 01:07:25;;;;;;;2.85;1.00;;;;;;;7.17;91.27;99023.00;6090823;23;20022;-82
2022/11/21 01:09:51;;;;;;;1.55;0.93;;;;;;;7.20;91.39;99021.03;6138548;23;20029;-82
2022/11/21 01:12:18;;;;;;;4.07;1.15;;;;;;;7.19;91.15;99014.91;6114033;23;20498;-82
2022/11/21 01:14:45;;;;;;;7.90;1.92;;;;;;;7.18;91.19;99024.66;6114544;23;20093;-82
2022/11/21 01:17:12;;;;;;;4.93;1.45;;;;;;;7.18;91.07;99024.66;6089724;23;20041;-82
2022/11/21 01:19:38;;;;;;;3.75;1.23;;;;;;;7.18;91.20;99027.28;6138216;23;20026;-83
2022/11/21 01:22:05;;;;;;;3.85;1.20;;;;;;;7.20;91.15;99023.66;6114383;23;20040;-83
2022/11/21 01:24:32;;;;;;;3.75;1.63;;;;;;;7.12;91.04;99022.56;6114197;23;20018;-82
2022/11/21 01:26:59;;;;;;;4.88;1.60;;;;;;;7.17;90.99;99030.03;6090141;23;20108;-81
2022/11/21 01:29:26;;;;;;;3.95;1.58;;;;;;;7.13;91.07;99024.22;6142582;23;20382;-82
2022/11/21 01:31:53;;;;;;;3.65;1.42;;;;;;;7.14;91.06;99023.22;6113904;23;20022;-83
2022/11/21 01:34:20;;;;;;;5.20;1.48;;;;;;;7.14;91.05;99025.03;6040561;23;20026;-86
2022/11/21 01:36:46;;;;;;;3.05;1.30;;;;;;;7.17;90.94;99024.75;6084731;23;20350;-82
2022/11/21 01:39:13;;;;;;;2.42;1.30;;;;;;;7.17;91.12;99023.00;6089589;23;20025;-82
2022/11/21 01:41:42;;;;;;;5.97;1.60;;;;;;;7.19;90.74;99020.19;6089954;23;20018;-82
2022/11/21 01:44:48;;;;;;;3.03;1.35;;;;;;;7.10;90.53;99013.94;6089892;23;20024;-82
2022/11/21 01:47:16;;;;;;;8.60;1.73;;;;;;;7.16;90.71;99021.28;6052048;23;20084;-82
2022/11/21 01:49:43;;;;;;;2.20;1.40;;;;;;;7.16;90.72;99021.28;6090493;23;20433;-83
2022/11/21 01:52:15;;;;;;;4.65;1.83;;;;;;;7.14;90.28;99017.13;6113792;23;20014;-81
2022/11/21 01:54:56;;;;;;;3.97;1.73;;;;;;;7.10;90.50;99021.03;6113837;23;20053;-81
2022/11/21 01:57:34;;;;;;;4.65;1.17;;;;;;;7.13;90.58;99021.56;6051649;23;20017;-82
2022/11/21 02:00:07;;;;;;;3.55;1.13;;;;;;;7.07;90.59;99016.84;6138351;23;20022;-82
2022/11/21 02:02:40;;;;;;;4.40;1.15;;;;;;;7.11;90.70;99020.03;6064039;23;20446;-83
2022/11/21 02:05:12;;;;;;;4.95;1.10;;;;;;;7.13;90.53;99015.47;6162980;23;20045;-82
2022/11/21 02:07:40;;;;;;;1.77;0.85;;;;;;;7.16;90.75;99013.38;6138443;23;20025;-82
2022/11/21 02:10:08;;;;;;;4.43;1.00;;;;;;;7.18;90.84;99011.44;6138802;23;20089;-82
2022/11/21 02:12:40;;;;;;;5.32;1.33;;;;;;;7.17;90.92;99014.22;6137869;23;20109;-82
2022/11/21 02:15:07;;;;;;;7.97;1.65;;;;;;;7.21;91.02;99014.78;6137926;23;20037;-83
2022/11/21 02:17:33;;;;;;;5.05;1.15;;;;;;;7.18;90.54;99007.97;6138632;23;20401;-82
2022/11/21 02:20:09;;;;;;;2.90;1.10;;;;;;;7.16;90.50;99005.47;6167742;23;20512;-82
2022/11/21 02:23:10;;;;;;;2.17;1.13;;;;;;;7.14;90.57;99011.84;6142622;23;20432;-82
2022/11/21 02:25:40;;;;;;;5.05;1.02;;;;;;;7.19;90.75;99001.72;6073230;23;20401;-85
2022/11/21 02:28:10;;;;;;;3.08;1.10;;;;;;;7.20;90.54;98999.91;6167947;23;20342;-82
2022/11/21 02:30:39;;;;;;;5.25;0.90;;;;;;;7.21;90.50;99006.88;6141867;23;20445;-82
2022/11/21 02:33:06;;;;;;;2.80;0.80;;;;;;;7.22;90.45;99000.59;6168064;23;20030;-82
2022/11/21 02:35:33;;;;;;;1.30;0.80;;;;;;;7.20;90.44;99006.03;6142453;23;20093;-82
2022/11/21 02:38:12;;;;;;;3.47;1.00;;;;;;;7.16;89.91;99002.81;6094483;23;20032;-83
2022/11/21 02:40:42;;;;;;;2.25;0.90;;;;;;;7.18;89.81;99000.06;6118317;23;20320;-83
2022/11/21 02:43:30;;;;;;;3.50;0.93;;;;;;;7.12;89.78;98997.94;6165919;23;20566;-83
2022/11/21 02:45:57;;;;;;;3.78;1.13;;;;;;;7.20;90.48;98998.13;6124148;23;20104;-82
2022/11/21 02:48:24;;;;;;;3.88;1.20;;;;;;;7.21;90.24;98993.66;6117940;23;20021;-83
2022/11/21 02:50:51;;;;;;;2.75;0.90;;;;;;;7.21;90.24;98993.66;6119583;23;20350;-83
2022/11/21 02:53:18;;;;;;;3.28;0.80;;;;;;;7.20;90.13;98978.78;6070424;23;20083;-82
2022/11/21 02:55:45;;;;;;;3.08;0.80;;;;;;;7.18;90.07;98982.41;6168016;23;20021;-82
2022/11/21 02:58:12;;;;;;;1.33;0.60;;;;;;;7.20;90.23;98982.28;6118178;23;20900;-84
2022/11/21 03:00:40;;;;;;;1.42;0.60;;;;;;;7.21;90.07;98976.00;6168672;23;20025;-83
2022/11/21 03:03:07;;;;;;;1.52;0.70;;;;;;;7.22;90.03;98971.56;6116127;23;20021;-82
2022/11/21 03:05:34;;;;;;;1.27;0.75;;;;;;;7.23;89.95;98981.16;6118345;23;20030;-85
2022/11/21 03:08:00;;;;;;;3.35;1.35;;;;;;;7.23;90.21;98976.72;6148172;23;20021;-83
2022/11/21 03:10:27;;;;;;;2.90;0.80;;;;;;;7.24;90.31;98969.63;6137006;23;20367;-83
2022/11/21 03:12:59;;;;;;;1.58;0.75;;;;;;;7.24;90.34;98969.63;6111871;23;20025;-83
2022/11/21 03:15:31;;;;;;;2.25;1.10;;;;;;;7.21;90.33;98968.09;6112940;23;20049;-83
2022/11/21 03:18:01;;;;;;;1.67;1.00;;;;;;;7.24;90.34;98961.72;6065638;23;20342;-82
2022/11/21 03:20:33;;;;;;;1.85;0.80;;;;;;;7.23;90.46;98971.44;6088702;23;20106;-82
2022/11/21 03:23:00;;;;;;;1.50;0.98;;;;;;;7.25;90.66;98966.88;6088531;23;20092;-82
2022/11/21 03:25:26;;;;;;;3.40;0.98;;;;;;;7.27;90.56;98958.78;6088865;23;20097;-82
2022/11/21 03:27:53;;;;;;;5.10;1.17;;;;;;;7.24;90.57;98951.16;6089995;23;20072;-82
2022/11/21 03:30:23;;;;;;;2.53;1.17;;;;;;;7.26;90.31;98962.41;6138474;23;20034;-82
2022/11/21 03:32:50;;;;;;;1.40;0.88;;;;;;;7.21;90.78;98961.97;6110261;23;20466;-82
2022/11/21 03:35:17;;;;;;;3.55;1.00;;;;;;;7.23;90.67;98963.53;6115500;23;20029;-83
2022/11/21 03:37:43;;;;;;;2.25;1.08;;;;;;;7.21;90.67;98959.34;6091276;23;20021;-82
2022/11/21 03:40:11;;;;;;;1.88;0.90;;;;;;;7.11;91.00;98946.13;6114550;23;20655;-83
2022/11/21 03:42:37;;;;;;;2.30;1.30;;;;;;;7.17;90.64;98946.41;6114623;23;20398;-83
2022/11/21 03:45:05;;;;;;;5.35;1.23;;;;;;;7.21;90.55;98946.97;6116059;23;20320;-83
2022/11/21 03:47:32;;;;;;;3.92;1.10;;;;;;;7.21;90.38;98943.50;6139509;23;20018;-83
2022/11/21 03:49:58;;;;;;;4.00;1.10;;;;;;;7.21;90.53;98940.88;6138561;23;20026;-84
2022/11/21 03:52:25;;;;;;;4.03;0.93;;;;;;;7.21;90.36;98941.69;6115109;23;20350;-82
2022/11/21 03:54:52;;;;;;;2.67;1.10;;;;;;;7.20;90.10;98933.88;6115708;23;20025;-82
2022/11/21 03:57:19;;;;;;;5.90;0.93;;;;;;;7.16;90.18;98949.19;6114931;23;20105;-83
2022/11/21 03:59:45;;;;;;;1.77;0.95;;;;;;;7.16;90.00;98954.47;6115724;23;20013;-82
2022/11/21 04:02:12;;;;;;;2.35;0.70;;;;;;;7.10;90.17;98942.66;6066210;23;20028;-82
2022/11/21 04:04:39;;;;;;;2.58;0.73;;;;;;;7.16;89.97;98949.19;6091564;23;20037;-82
2022/11/21 04:07:05;;;;;;;2.25;1.00;;;;;;;7.17;90.26;98938.50;6133948;23;20029;-82
2022/11/21 04:09:32;;;;;;;0.75;0.50;;;;;;;7.17;90.32;98946.41;6085907;23;20022;-82
2022/11/21 04:11:59;;;;;;;4.68;0.90;;;;;;;7.20;90.36;98947.09;6108676;23;20077;-82
2022/11/21 04:14:33;;;;;;;3.55;0.90;;;;;;;7.19;90.37;98948.91;6061873;23;20445;-82
2022/11/21 04:16:59;;;;;;;5.75;1.23;;;;;;;7.16;90.27;98950.00;6085895;23;20318;-82
2022/11/21 04:19:26;;;;;;;2.50;1.02;;;;;;;7.16;90.18;98944.72;6076499;23;20026;-83
2022/11/21 04:21:53;;;;;;;4.25;0.88;;;;;;;7.15;90.51;98939.59;6085595;23;20028;-84
2022/11/21 04:24:19;;;;;;;5.10;0.77;;;;;;;7.16;90.31;98939.44;6063936;23;20038;-82
2022/11/21 04:26:46;;;;;;;5.75;0.93;;;;;;;7.17;90.60;98946.41;6037286;23;20015;-83
2022/11/21 04:29:13;;;;;;;1.42;0.77;;;;;;;7.18;90.57;98952.53;6061707;23;20085;-83
2022/11/21 04:31:39;;;;;;;2.63;0.80;;;;;;;7.15;90.61;98945.72;6086008;23;20382;-82
2022/11/21 04:34:06;;;;;;;2.15;1.10;;;;;;;7.16;90.70;98944.72;6065925;23;20018;-83
2022/11/21 04:36:33;;;;;;;2.35;0.90;;;;;;;7.16;90.68;98947.38;6090774;23;20021;-82
2022/11/21 04:39:00;;;;;;;2.08;1.00;;;;;;;7.10;90.80;98952.38;6063282;23;20026;-83
2022/11/21 04:41:27;;;;;;;2.17;0.80;;;;;;;7.17;90.75;98941.13;6085417;23;20030;-82
2022/11/21 04:43:53;;;;;;;2.40;0.88;;;;;;;7.16;90.71;98950.00;6079677;23;20113;-82
2022/11/21 04:46:20;;;;;;;1.98;0.95;;;;;;;7.17;90.88;98959.63;6138576;23;20085;-83
2022/11/21 04:48:54;;;;;;;3.35;1.15;;;;;;;7.18;90.82;98950.72;6137774;23;20097;-84
2022/11/21 04:52:03;;;;;;;4.75;1.05;;;;;;;7.15;91.11;98950.16;6052613;23;20018;-83
2022/11/21 04:54:30;;;;;;;4.22;1.23;;;;;;;7.16;90.97;98946.53;6148152;23;20029;-81
2022/11/21 04:56:57;;;;;;;3.67;1.13;;;;;;;7.15;91.31;98953.63;6121978;23;20060;-84
2022/11/21 04:59:23;;;;;;;2.75;1.00;;;;;;;7.17;91.02;98945.56;6091176;23;20026;-81
2022/11/21 05:01:50;;;;;;;2.72;1.20;;;;;;;7.15;91.17;98952.81;6148741;23;20076;-81
2022/11/21 05:04:17;;;;;;;2.92;1.10;;;;;;;7.16;91.15;98962.38;6093738;23;20025;-80
2022/11/21 05:06:43;;;;;;;3.28;1.00;;;;;;;7.16;91.16;98963.22;6109901;23;20048;-81
2022/11/21 05:09:10;;;;;;;5.30;1.20;;;;;;;7.17;91.20;98964.03;6139178;23;20018;-80
2022/11/21 05:14:25;;;;;;;1.83;1.15;;;;;;;7.17;91.00;98956.97;6091875;23;20049;-80
2022/11/21 05:16:52;;;;;;;3.92;1.20;;;;;;;7.17;91.15;98956.97;6162833;23;20106;-80
2022/11/21 05:19:19;;;;;;;1.52;1.08;;;;;;;7.17;91.14;98956.13;6139078;23;20382;-80
2022/11/21 05:21:45;;;;;;;3.28;1.05;;;;;;;7.17;90.97;98959.63;6163869;23;20021;-80
2022/11/21 05:24:12;;;;;;;1.27;0.98;;;;;;;7.18;90.76;98965.72;6163149;23;20036;-80
2022/11/21 05:26:39;;;;;;;3.65;0.90;;;;;;;7.18;90.95;98957.81;6115254;23;20073;-80
2022/11/21 05:29:06;;;;;;;2.90;1.20;;;;;;;7.19;90.86;98959.47;6113842;23;20026;-80
2022/11/21 05:31:32;;;;;;;2.15;0.88;;;;;;;7.18;90.87;98956.00;6138407;23;20032;-80
2022/11/21 05:33:59;;;;;;;1.40;0.90;;;;;;;7.21;90.70;98964.63;6164396;23;20014;-80
2022/11/21 05:36:26;;;;;;;4.10;0.90;;;;;;;7.19;90.88;98970.03;6115839;23;20026;-80
2022/11/21 05:38:52;;;;;;;3.85;0.98;;;;;;;7.18;90.66;98963.91;6138535;23;20028;-80
2022/11/21 05:41:19;;;;;;;1.20;0.80;;;;;;;7.21;90.53;98967.25;6114328;23;20033;-80
2022/11/21 05:43:46;;;;;;;3.58;1.10;;;;;;;7.19;90.62;98964.75;6138465;23;20018;-80
2022/11/21 05:46:15;;;;;;;3.90;0.93;;;;;;;7.16;90.78;98971.13;6113425;23;20026;-83
2022/11/21 05:48:42;;;;;;;3.95;1.10;;;;;;;7.18;90.64;98965.72;6114825;23;20450;-80
2022/11/21 05:51:09;;;;;;;2.75;0.90;;;;;;;7.19;90.53;98967.38;6163428;23;20026;-80
2022/11/21 05:53:36;;;;;;;2.58;1.10;;;;;;;7.18;90.85;98976.28;6138982;23;20049;-80
2022/11/21 05:56:05;;;;;;;2.30;0.95;;;;;;;7.19;90.60;98972.66;6139003;23;20022;-80
2022/11/21 05:58:31;;;;;;;2.95;1.05;;;;;;;7.21;90.41;98972.53;6138189;23;20077;-80
2022/11/21 06:00:58;;;;;;;1.08;0.90;;;;;;;7.21;90.54;98972.53;6114732;23;20021;-80
2022/11/21 06:03:31;;;;;;;3.15;1.17;;;;;;;7.22;90.49;98968.91;6162597;23;20022;-81
2022/11/21 06:06:08;;;;;;;2.50;1.33;;;;;;;7.20;90.33;98971.72;6161892;23;20056;-82
2022/11/21 06:08:42;;;;;;;4.95;1.15;;;;;;;7.19;90.46;98964.75;6137976;23;20021;-78
2022/11/21 06:11:11;;;;;;;4.25;1.33;;;;;;;7.22;90.38;98974.19;6113346;23;20458;-79
2022/11/21 06:13:38;;;;;;;3.42;1.50;;;;;;;7.20;90.30;98968.22;6162721;23;20026;-79
2022/11/21 06:16:07;;;;;;;3.53;1.42;;;;;;;7.18;90.44;98974.47;6164062;23;20098;-79
2022/11/21 06:18:36;;;;;;;5.82;1.27;;;;;;;7.17;90.56;98971.97;6113812;23;20022;-79
2022/11/21 06:21:06;;;;;;;2.40;1.20;;;;;;;7.16;90.43;98983.50;6113681;23;20350;-79
2022/11/21 06:23:33;;;;;;;5.00;1.55;;;;;;;7.18;90.55;98981.56;6137801;23;20018;-79
2022/11/21 06:26:02;;;;;;;4.88;1.50;;;;;;;7.19;90.51;98985.88;6138707;23;20022;-79
2022/11/21 06:28:32;;;;;;;6.65;1.60;;;;;;;7.21;90.46;98983.94;6113688;23;20026;-82
2022/11/21 06:31:06;;;;;;;5.47;1.50;;;;;;;7.20;90.55;98984.06;6162315;23;20054;-80
2022/11/21 06:33:33;;;;;;;5.78;2.50;;;;;;;7.21;90.72;98983.94;6113434;23;20100;-79
2022/11/21 06:36:05;;;;;;;6.43;1.50;;;;;;;7.21;90.65;98980.47;6162539;23;20033;-81
2022/11/21 06:38:32;;;;;;;4.85;1.52;;;;;;;7.21;90.99;98988.38;6162935;23;20024;-79
2022/11/21 06:41:05;;;;;;;4.82;1.42;;;;;;;7.20;90.91;98981.41;6114162;23;20018;-79
2022/11/21 06:43:31;;;;;;;7.55;1.88;;;;;;;7.21;91.07;98986.56;6112443;23;20033;-79
2022/11/21 06:45:58;;;;;;;3.63;1.65;;;;;;;7.21;91.25;98989.22;6163688;23;20021;-79
2022/11/21 06:48:25;;;;;;;7.97;2.10;;;;;;;7.22;91.17;98985.59;6163833;23;20026;-79
2022/11/21 06:50:51;;;;;;;3.45;1.35;;;;;;;7.23;91.07;98995.19;6140735;23;23601;-80
2022/11/21 06:53:19;;;;;;;5.60;1.83;;;;;;;7.22;91.37;98988.22;6116238;23;20018;-79
2022/11/21 06:55:45;;;;;;;3.67;1.50;;;;;;;7.23;91.18;98994.38;6162866;23;20057;-79
2022/11/21 06:58:12;;;;;;;4.93;1.73;;;;;;;7.24;91.17;99001.31;6164484;23;20041;-80
2022/11/21 07:00:39;;;;;;;3.30;1.48;;;;;;;7.25;90.94;99002.97;6165355;23;20049;-79
2022/11/21 07:03:05;;;;;;;3.45;1.50;;;;;;;7.25;91.02;99009.13;6138337;23;20454;-79
2022/11/21 07:05:32;;;;;;;5.18;1.73;;;;;;;7.25;91.07;99008.25;6139336;23;20045;-79
2022/11/21 07:07:59;;;;;;;3.38;1.45;;;;;;;7.25;91.26;98997.69;6140561;23;20450;-79
2022/11/21 07:10:27;;;;;;;5.68;1.90;;;;;;;7.25;91.05;99000.34;6164642;23;20350;-79
2022/11/21 07:15:44;;;;;;;5.35;2.10;;;;;;;7.25;90.84;98997.69;6067832;23;20133;-79
2022/11/21 07:18:11;;;;;;;4.10;2.33;;;;;;;7.26;90.96;98999.38;6164252;23;20040;-78
2022/11/21 07:20:39;;;;;;;6.10;1.50;;;;;;;7.26;90.93;98991.47;6140200;23;20030;-79
2022/11/21 07:23:06;;;;;;;6.10;2.08;;;;;;;7.27;90.98;98990.47;6164008;23;20030;-81
2022/11/21 07:25:33;;;;;;;6.28;2.40;;;;;;;7.23;90.67;98992.56;6115680;23;20127;-79
2022/11/21 07:28:03;;;;;;;4.78;1.92;;;;;;;7.23;91.16;98986.44;6115570;23;20346;-79
2022/11/21 07:30:30;;;;;;;7.68;1.88;;;;;;;7.25;90.82;98989.78;6139952;23;20017;-79
2022/11/21 07:32:58;;;;;;;10.77;1.85;;;;;;;7.26;90.90;98987.00;6161951;23;20462;-81
2022/11/21 07:35:25;;;;;;;7.00;2.17;;;;;;;7.23;91.43;98995.19;6115905;23;20072;-79
2022/11/21 07:37:52;;;;;;;4.30;1.67;;;;;;;7.25;91.24;98995.06;6139918;23;20089;-79
2022/11/21 07:40:19;;;;;;;7.28;1.73;;;;;;;7.26;91.20;98994.94;6091270;23;20092;-80
2022/11/21 07:42:46;;;;;;;4.32;1.98;;;;;;;7.28;91.11;99002.72;6139606;23;20018;-79
2022/11/21 07:45:14;;;;;;;7.75;2.03;;;;;;;7.27;91.24;98993.94;6115815;23;20017;-79
2022/11/21 07:47:41;;;;;;;6.65;2.20;;;;;;;7.31;91.16;98999.81;6091241;23;20050;-79
2022/11/21 07:50:09;;;;;;;6.90;1.92;;;;;;;7.31;91.12;98997.16;6139495;23;20018;-79
2022/11/21 07:52:36;;;;;;;7.32;1.80;;;;;;;7.30;91.12;99000.75;6115215;23;20022;-79
2022/11/21 07:55:04;;;;;;;7.90;2.95;;;;;;;7.32;91.21;98994.38;6138807;23;20073;-80
2022/11/21 07:57:31;;;;;;;6.60;2.00;;;;;;;7.33;91.16;98993.41;6139531;23;20112;-80
2022/11/21 07:59:58;;;;;;;6.07;2.20;;;;;;;7.33;91.39;99003.16;6163105;23;20096;-79
2022/11/21 08:02:26;;;;;;;7.75;1.80;;;;;;;7.33;91.19;99001.34;6138905;23;20021;-79
2022/11/21 08:04:53;;;;;;;9.13;2.33;;;;;;;7.35;91.38;99006.47;6163608;23;20028;-79
2022/11/21 08:07:21;;;;;;;7.30;2.05;;;;;;;7.33;91.15;99011.91;6139834;23;20024;-79
2022/11/21 08:09:49;;;;;;;9.13;2.08;;;;;;;7.35;91.05;99011.75;6140107;23;20090;-79
2022/11/21 08:12:16;;;;;;;4.72;1.98;;;;;;;7.36;91.02;99019.56;6115349;23;20025;-79
2022/11/21 08:14:42;;;;;;;8.30;2.38;;;;;;;7.36;90.56;99016.09;6139356;23;20366;-82
2022/11/21 08:17:09;;;;;;;5.57;2.03;;;;;;;7.37;90.71;99020.38;6115347;23;20292;-79
2022/11/21 08:19:36;;;;;;;5.82;1.85;;;;;;;7.38;90.75;99014.97;6164353;23;20029;-79
2022/11/21 08:22:02;;;;;;;5.70;1.98;;;;;;;7.40;90.75;99009.53;6139776;23;20047;-79
2022/11/21 08:24:29;;;;;;;7.43;2.10;;;;;;;7.41;90.72;99007.75;6163202;23;20064;-80
2022/11/21 08:26:57;;;;;;;7.53;1.98;;;;;;;7.41;90.70;99002.47;6164091;23;20093;-80
2022/11/21 08:29:25;;;;;;;5.32;2.22;;;;;;;7.38;90.29;99014.16;6163955;23;20045;-80
2022/11/21 08:31:52;;;;;;;6.38;1.70;;;;;;;7.38;90.16;99011.50;6162498;23;20398;-79
2022/11/21 08:34:19;;;;;;;6.75;1.70;;;;;;;7.41;90.09;99013.03;6164105;23;20026;-79
2022/11/21 08:36:46;;;;;;;6.75;2.10;;;;;;;7.42;89.94;99012.06;6163695;23;20034;-81
2022/11/21 08:39:13;;;;;;;6.53;1.83;;;;;;;7.41;89.81;99013.03;6139470;23;20057;-79
2022/11/21 08:44:25;;;;;;;7.38;1.67;;;;;;;7.41;89.43;99011.22;6135987;23;20041;-79
2022/11/21 08:46:51;;;;;;;3.13;1.40;;;;;;;7.41;89.35;99005.94;6163461;23;20025;-79
2022/11/21 08:49:18;;;;;;;5.22;1.73;;;;;;;7.43;89.57;99001.38;6114639;23;20446;-80
2022/11/21 08:51:48;;;;;;;6.40;1.48;;;;;;;7.45;89.38;99003.84;6114460;23;20096;-79
2022/11/21 08:54:19;;;;;;;7.07;1.70;;;;;;;7.43;89.13;99006.66;6163441;23;20462;-79
2022/11/21 08:56:46;;;;;;;6.18;1.70;;;;;;;7.45;89.28;99007.31;6089790;23;20105;-79
2022/11/21 08:59:12;;;;;;;10.18;1.92;;;;;;;7.46;89.23;99005.53;6162337;23;20477;-80
2022/11/21 09:01:39;;;;;;;7.75;1.80;;;;;;;7.47;88.91;99012.50;6113915;23;20034;-79
2022/11/21 09:04:06;;;;;;;4.05;1.40;;;;;;;7.48;88.57;99007.09;6163624;23;20018;-79
2022/11/21 09:06:34;;;;;;;7.57;1.77;;;;;;;7.48;88.56;99000.94;6138660;23;20026;-79
2022/11/21 09:09:00;;;;;;;4.82;1.60;;;;;;;7.50;88.35;98996.34;6138944;23;20347;-80
2022/11/21 09:11:27;;;;;;;2.95;1.38;;;;;;;7.53;88.41;99006.66;6114275;23;20076;-80
2022/11/21 09:19:28;;;;;;;4.90;1.30;;;;;;;7.55;87.95;98994.13;6113211;23;20022;-79
2022/11/21 09:21:55;;;;;;;4.50;1.70;;;;;;;7.57;87.74;98987.75;6163889;23;20014;-80
2022/11/21 09:24:21;;;;;;;4.47;1.15;;;;;;;7.55;87.39;98986.22;6163492;23;20443;-79
2022/11/21 09:26:48;;;;;;;6.15;2.10;;;;;;;7.60;87.41;98987.47;6163658;23;20022;-79
2022/11/21 09:29:15;;;;;;;3.67;1.50;;;;;;;7.66;87.66;98985.25;6163348;23;20363;-79
2022/11/21 09:31:42;;;;;;;4.60;1.33;;;;;;;7.67;87.01;98984.28;6114601;23;20092;-79
2022/11/21 09:34:09;;;;;;;5.30;1.55;;;;;;;7.71;87.49;98985.66;6138843;23;20053;-79
2022/11/21 09:36:36;;;;;;;6.63;1.88;;;;;;;7.70;87.29;98991.94;6162781;23;20362;-80
2022/11/21 09:39:03;;;;;;;5.45;1.35;;;;;;;7.72;86.73;98984.72;6139055;23;20029;-79
2022/11/21 09:41:53;;;;;;;7.25;2.50;;;;;;;7.71;86.73;98988.31;6114297;23;20029;-80
2022/11/21 09:44:28;;;;;;;5.40;1.52;;;;;;;7.72;86.44;98988.19;6119235;23;20022;-80
2022/11/21 09:47:04;;;;;;;4.35;1.58;;;;;;;7.74;85.86;98982.78;6113357;23;20084;-79
2022/11/21 09:49:39;;;;;;;3.85;1.17;;;;;;;7.76;84.24;98988.72;6138973;23;20350;-80
2022/11/21 09:52:07;;;;;;;5.57;1.95;;;;;;;7.78;85.11;98976.22;6113551;23;20022;-80
2022/11/21 09:54:38;;;;;;;7.60;1.40;;;;;;;7.80;85.14;98974.28;6138567;23;20101;-80
2022/11/21 09:57:05;;;;;;;5.30;1.15;;;;;;;7.84;85.13;98970.38;6137627;23;20018;-81
2022/11/21 09:59:34;;;;;;;3.78;1.13;;;;;;;7.86;84.86;98970.22;6163543;23;20076;-80
2022/11/21 10:02:02;;;;;;;3.75;1.17;;;;;;;7.88;84.89;98971.75;6162550;23;20028;-80
2022/11/21 10:04:30;;;;;;;3.30;1.50;;;;;;;7.92;83.66;98959.94;6163093;23;20022;-80
2022/11/21 10:07:04;;;;;;;6.07;1.35;;;;;;;7.86;83.26;98931.44;6163249;23;20092;-82
2022/11/21 10:09:34;;;;;;;8.63;1.52;;;;;;;7.91;83.58;98947.72;6162449;23;20551;-80
2022/11/21 10:15:11;;;;;;;5.65;1.73;;;;;;;7.91;81.27;98938.94;6116623;23;20030;-80
2022/11/21 10:17:54;;;;;;;6.70;1.45;;;;;;;7.94;82.19;98930.75;6014297;23;20356;-80
2022/11/21 10:21:03;;;;;;;6.10;1.20;;;;;;;7.93;82.20;98927.25;6026053;23;20336;-79
2022/11/21 10:23:49;;;;;;;4.70;1.20;;;;;;;7.95;81.47;98919.19;5962938;23;20023;-80
2022/11/21 10:26:38;;;;;;;10.02;2.05;;;;;;;7.94;81.34;98913.06;6022697;23;20023;-79
2022/11/21 10:29:14;;;;;;;4.60;1.10;;;;;;;7.99;81.57;98918.75;6025072;23;20023;-79
2022/11/21 10:31:42;;;;;;;5.45;1.15;;;;;;;8.07;82.49;98910.13;6001742;23;20805;-80
2022/11/21 10:34:18;;;;;;;5.40;1.10;;;;;;;8.09;82.52;98907.31;6002650;23;20020;-79
2022/11/21 10:36:58;;;;;;;2.22;1.00;;;;;;;8.17;82.04;98899.53;5957002;23;20037;-79
2022/11/21 10:39:34;;;;;;;2.85;0.95;;;;;;;8.23;82.27;98894.47;6025631;23;20020;-80
2022/11/21 10:42:22;;;;;;;3.60;1.20;;;;;;;8.30;82.50;98894.75;6002712;23;20031;-79
2022/11/21 10:47:39;;;;;;;7.53;1.63;;;;;;;8.30;82.10;98894.75;5956430;23;20023;-80
2022/11/21 10:50:08;;;;;;;8.52;1.27;;;;;;;8.30;81.66;98893.91;6162808;23;20018;-79
2022/11/21 10:54:31;;;;;;;4.72;1.42;;;;;;;8.20;80.50;98888.66;6162440;23;20046;-80
2022/11/21 10:56:25;;;;;;;4.28;1.10;;;;;;;8.22;81.26;98889.34;6041706;23;20394;-80
2022/11/21 10:58:56;;;;;;;4.15;1.15;;;;;;;8.18;80.27;98887.97;6027826;23;20918;-80
2022/11/21 11:01:33;;;;;;;3.45;1.17;;;;;;;8.18;80.84;98891.44;6113401;23;20513;-80
2022/11/21 11:04:09;;;;;;;3.70;1.17;;;;;;;8.15;79.35;98878.50;6113500;23;20022;-79
2022/11/21 11:06:58;;;;;;;2.92;1.23;;;;;;;8.25;81.33;98875.84;6049759;23;20025;-80
2022/11/21 11:09:30;;;;;;;6.03;1.33;;;;;;;8.26;81.00;98870.38;6139278;23;20077;-80
2022/11/21 11:12:21;;;;;;;6.13;1.30;;;;;;;8.25;80.49;98867.91;6137220;23;20022;-79
2022/11/21 11:14:53;;;;;;;6.70;1.40;;;;;;;8.32;81.18;98855.75;6091557;23;20054;-80
2022/11/21 11:17:28;;;;;;;6.15;1.45;;;;;;;8.32;80.56;98849.63;6138288;23;20481;-80
2022/11/21 11:20:04;;;;;;;15.07;3.30;;;;;;;8.39;81.00;98843.63;6162412;23;20026;-79
2022/11/21 11:22:32;;;;;;;2.03;1.40;;;;;;;8.43;81.40;98830.97;6089151;23;20025;-80
2022/11/21 11:25:03;;;;;;;3.83;1.52;;;;;;;8.42;81.05;98824.84;6163374;23;20030;-80
2022/11/21 11:27:30;;;;;;;6.10;1.55;;;;;;;8.42;81.01;98822.19;6089458;23;20029;-80
2022/11/21 11:30:05;;;;;;;9.70;1.85;;;;;;;8.38;80.64;98822.59;6138273;23;20022;-80
2022/11/21 11:32:31;;;;;;;6.15;1.83;;;;;;;8.38;80.86;98814.66;6064058;23;20014;-79
2022/11/21 11:34:59;;;;;;;5.53;2.05;;;;;;;8.36;80.92;98811.31;6115491;23;20040;-80
2022/11/21 11:38:05;;;;;;;9.32;1.77;;;;;;;8.24;79.97;98810.66;6164460;23;20331;-80
2022/11/21 11:40:35;;;;;;;5.55;1.48;;;;;;;8.27;81.42;98803.31;6079896;23;20089;-79
2022/11/21 11:49:17;;;;;;;6.28;1.80;;;;;;;8.36;81.74;98793.63;6016332;23;20014;-80
2022/11/21 11:51:53;;;;;;;4.18;1.48;;;;;;;8.45;81.04;98784.84;6067743;23;20014;-79
2022/11/21 11:54:26;;;;;;;8.88;2.17;;;;;;;8.54;80.97;98782.31;6114110;23;20034;-79
2022/11/21 11:56:53;;;;;;;8.40;3.00;;;;;;;8.68;81.28;98776.50;6138697;23;20509;-80
2022/11/21 11:59:30;;;;;;;6.38;2.78;;;;;;;8.73;80.16;98778.69;6164944;23;20045;-79
2022/11/21 12:02:05;;;;;;;6.20;1.63;;;;;;;8.77;79.90;98780.88;6112940;23;20501;-80
2022/11/21 12:04:53;;;;;;;6.32;1.73;;;;;;;8.74;79.50;98781.19;6114091;23;20017;-79
2022/11/21 12:07:43;;;;;;;4.17;1.47;;;;;;;8.63;77.45;98770.84;6138883;23;20327;-80
2022/11/21 12:12:05;;;;;;;6.38;1.60;;;;;;;8.66;79.22;98760.75;5998630;23;20406;-79
2022/11/21 12:13:24;;;;;;;9.95;1.55;;;;;;;8.64;79.53;98762.72;6088849;23;20350;-81
2022/11/21 12:15:53;;;;;;;9.15;1.75;;;;;;;8.60;79.34;98755.22;6164859;23;20018;-79
2022/11/21 12:18:38;;;;;;;7.85;1.48;;;;;;;8.54;79.16;98754.03;6125084;23;20068;-80
2022/11/21 12:21:12;;;;;;;5.40;1.50;;;;;;;8.52;79.31;98744.56;6118858;23;20021;-80